createdAt,value
2017-04-27T00:00:17.113Z,7.9
2017-04-27T00:01:17.073Z,7.9
2017-04-27T00:02:17.004Z,7.91
2017-04-27T00:03:16.652Z,7.9
2017-04-27T00:04:16.962Z,7.9
2017-04-27T00:05:17.032Z,7.86
2017-04-27T00:06:16.905Z,7.93
2017-04-27T00:07:16.960Z,7.86
2017-04-27T00:08:16.597Z,7.88
2017-04-27T00:09:16.903Z,7.9
2017-04-27T00:10:16.507Z,7.88
2017-04-27T00:11:16.802Z,7.83
2017-04-27T00:12:16.454Z,7.85
2017-04-27T00:13:16.802Z,7.86
2017-04-27T00:14:16.403Z,7.82
2017-04-27T00:15:16.741Z,7.78
2017-04-27T00:16:16.369Z,7.75
2017-04-27T00:17:16.646Z,7.79
2017-04-27T00:18:16.634Z,7.72
2017-04-27T00:19:16.642Z,7.78
2017-04-27T00:20:16.574Z,7.78
2017-04-27T00:21:16.560Z,7.78
2017-04-27T00:22:16.543Z,7.73
2017-04-27T00:23:16.614Z,7.68
2017-04-27T00:24:16.483Z,7.7
2017-04-27T00:25:16.162Z,7.73
2017-04-27T00:26:16.471Z,7.72
2017-04-27T00:27:16.413Z,7.76
2017-04-27T00:28:16.082Z,7.72
2017-04-27T00:29:15.765Z,7.79
2017-04-27T00:30:16.340Z,7.7
2017-04-27T00:31:16.026Z,7.68
2017-04-27T00:32:16.002Z,7.67
2017-04-27T00:33:15.978Z,7.38
2017-04-27T00:34:15.636Z,7.57
2017-04-27T00:35:15.986Z,7.48
2017-04-27T00:36:15.906Z,7.59
2017-04-27T00:37:16.199Z,7.59
2017-04-27T00:38:15.865Z,7.56
2017-04-27T00:39:15.913Z,7.57
2017-04-27T00:40:15.503Z,7.59
2017-04-27T00:41:16.102Z,7.7
2017-04-27T00:42:15.756Z,7.64
2017-04-27T00:43:16.082Z,7.67
2017-04-27T00:44:16.048Z,7.59
2017-04-27T00:45:16.116Z,7.64
2017-04-27T00:46:15.670Z,7.64
2017-04-27T00:47:15.955Z,7.7
2017-04-27T00:48:15.933Z,7.64
2017-04-27T00:49:15.913Z,7.56
2017-04-27T00:50:15.583Z,7.59
2017-04-27T00:51:15.612Z,7.45
2017-04-27T00:52:15.843Z,7.59
2017-04-27T00:53:15.840Z,7.55
2017-04-27T00:54:15.503Z,7.63
2017-04-27T00:55:15.175Z,7.57
2017-04-27T00:56:15.758Z,7.64
2017-04-27T00:57:15.506Z,7.68
2017-04-27T00:58:15.703Z,7.7
2017-04-27T00:59:15.682Z,7.72
2017-04-27T01:00:15.405Z,7.7
2017-04-27T01:01:15.075Z,7.63
2017-04-27T01:02:14.992Z,7.6
2017-04-27T01:03:15.584Z,7.56
2017-04-27T01:04:15.566Z,7.56
2017-04-27T01:05:15.333Z,7.6
2017-04-27T01:06:15.276Z,7.63
2017-04-27T01:07:15.190Z,7.6
2017-04-27T01:08:15.482Z,7.73
2017-04-27T01:09:15.483Z,7.64
2017-04-27T01:10:15.474Z,7.7
2017-04-27T01:11:14.819Z,7.73
2017-04-27T01:12:15.072Z,7.68
2017-04-27T01:13:15.358Z,7.7
2017-04-27T01:14:15.336Z,7.55
2017-04-27T01:15:15.108Z,7.59
2017-04-27T01:16:15.014Z,7.62
2017-04-27T01:17:14.945Z,7.56
2017-04-27T01:18:15.000Z,7.47
2017-04-27T01:19:14.905Z,7.47
2017-04-27T01:20:14.590Z,7.48
2017-04-27T01:21:14.558Z,7.44
2017-04-27T01:22:14.613Z,7.39
2017-04-27T01:23:15.152Z,7.47
2017-04-27T01:24:14.813Z,7.44
2017-04-27T01:25:14.794Z,7.53
2017-04-27T01:26:14.793Z,7.59
2017-04-27T01:27:14.730Z,7.56
2017-04-27T01:28:14.713Z,7.68
2017-04-27T01:29:14.687Z,7.62
2017-04-27T01:30:14.983Z,7.57
2017-04-27T01:31:14.643Z,7.53
2017-04-27T01:32:14.936Z,7.48
2017-04-27T01:33:14.593Z,7.45
2017-04-27T01:34:14.883Z,7.42
2017-04-27T01:35:14.852Z,7.45
2017-04-27T01:36:14.837Z,7.47
2017-04-27T01:37:14.800Z,7.49
2017-04-27T01:38:14.791Z,7.45
2017-04-27T01:39:14.761Z,7.53
2017-04-27T01:40:14.734Z,7.47
2017-04-27T01:41:14.404Z,7.47
2017-04-27T01:42:14.692Z,7.52
2017-04-27T01:43:14.673Z,7.44
2017-04-27T01:44:14.646Z,7.44
2017-04-27T01:45:14.613Z,7.44
2017-04-27T01:46:14.613Z,7.45
2017-04-27T01:47:14.575Z,7.44
2017-04-27T01:48:14.555Z,7.39
2017-04-27T01:49:14.524Z,7.42
2017-04-27T01:50:14.514Z,7.44
2017-04-27T01:51:14.494Z,7.38
2017-04-27T01:52:14.461Z,7.45
2017-04-27T01:53:14.442Z,7.41
2017-04-27T01:54:14.114Z,7.49
2017-04-27T01:55:14.406Z,7.45
2017-04-27T01:56:14.062Z,7.35
2017-04-27T01:57:13.733Z,7.44
2017-04-27T01:58:14.333Z,7.41
2017-04-27T01:59:14.300Z,7.42
2017-04-27T02:00:14.274Z,7.47
2017-04-27T02:01:14.253Z,7.42
2017-04-27T02:02:14.232Z,7.44
2017-04-27T02:03:14.205Z,7.48
2017-04-27T02:04:14.194Z,7.39
2017-04-27T02:05:14.163Z,7.42
2017-04-27T02:06:14.133Z,7.49
2017-04-27T02:07:14.116Z,7.47
2017-04-27T02:08:13.796Z,7.48
2017-04-27T02:09:14.065Z,7.48
2017-04-27T02:10:13.731Z,7.45
2017-04-27T02:11:14.041Z,7.45
2017-04-27T02:12:13.744Z,7.47
2017-04-27T02:13:13.971Z,7.44
2017-04-27T02:14:13.693Z,7.42
2017-04-27T02:15:13.942Z,7.57
2017-04-27T02:16:13.626Z,7.47
2017-04-27T02:17:13.932Z,7.45
2017-04-27T02:18:13.614Z,7.55
2017-04-27T02:19:13.543Z,7.45
2017-04-27T02:20:13.842Z,7.41
2017-04-27T02:21:13.493Z,7.55
2017-04-27T02:22:13.513Z,7.55
2017-04-27T02:23:13.442Z,7.42
2017-04-27T02:24:13.433Z,7.47
2017-04-27T02:25:13.413Z,7.42
2017-04-27T02:26:13.768Z,7.3
2017-04-27T02:27:13.684Z,7.38
2017-04-27T02:28:13.351Z,7.39
2017-04-27T02:29:13.292Z,7.26
2017-04-27T02:30:13.630Z,7.29
2017-04-27T02:31:13.259Z,7.23
2017-04-27T02:32:13.233Z,7.2
2017-04-27T02:33:13.575Z,7.2
2017-04-27T02:34:13.240Z,7.31
2017-04-27T02:35:13.482Z,7.35
2017-04-27T02:36:13.502Z,7.39
2017-04-27T02:37:13.430Z,7.31
2017-04-27T02:38:13.394Z,7.31
2017-04-27T02:39:13.373Z,7.31
2017-04-27T02:40:13.356Z,7.27
2017-04-27T02:41:13.332Z,7.26
2017-04-27T02:42:13.308Z,7.26
2017-04-27T02:43:13.393Z,7.26
2017-04-27T02:44:12.961Z,7.24
2017-04-27T02:45:13.064Z,7.21
2017-04-27T02:46:12.955Z,7.17
2017-04-27T02:47:13.186Z,7.23
2017-04-27T02:48:12.852Z,7.21
2017-04-27T02:49:12.834Z,7.12
2017-04-27T02:50:13.133Z,7.16
2017-04-27T02:51:12.493Z,7.05
2017-04-27T02:52:12.473Z,7.09
2017-04-27T02:53:12.842Z,7.06
2017-04-27T02:54:13.031Z,7.08
2017-04-27T02:55:12.774Z,7.19
2017-04-27T02:56:13.013Z,7.02
2017-04-27T02:57:12.648Z,7.04
2017-04-27T02:58:12.618Z,7.05
2017-04-27T02:59:12.920Z,6.98
2017-04-27T03:00:12.578Z,7.02
2017-04-27T03:01:12.264Z,6.94
2017-04-27T03:02:12.852Z,6.91
2017-04-27T03:03:12.530Z,6.98
2017-04-27T03:04:12.494Z,6.87
2017-04-27T03:05:12.764Z,6.91
2017-04-27T03:06:12.432Z,6.94
2017-04-27T03:07:12.423Z,6.96
2017-04-27T03:08:12.393Z,6.96
2017-04-27T03:09:12.377Z,6.84
2017-04-27T03:10:12.651Z,6.94
2017-04-27T03:11:12.324Z,6.9
2017-04-27T03:12:12.614Z,6.87
2017-04-27T03:13:12.605Z,6.91
2017-04-27T03:14:12.244Z,6.73
2017-04-27T03:15:12.532Z,6.75
2017-04-27T03:16:12.506Z,6.69
2017-04-27T03:17:12.194Z,6.65
2017-04-27T03:18:12.481Z,6.66
2017-04-27T03:19:12.142Z,6.63
2017-04-27T03:20:12.411Z,6.72
2017-04-27T03:21:12.392Z,6.69
2017-04-27T03:22:12.373Z,6.62
2017-04-27T03:23:12.345Z,6.59
2017-04-27T03:24:12.327Z,6.62
2017-04-27T03:25:12.303Z,6.63
2017-04-27T03:26:11.699Z,6.63
2017-04-27T03:27:12.253Z,6.57
2017-04-27T03:28:12.003Z,6.7
2017-04-27T03:29:12.214Z,6.57
2017-04-27T03:30:11.986Z,6.6
2017-04-27T03:31:11.867Z,6.59
2017-04-27T03:32:12.132Z,6.57
2017-04-27T03:33:12.123Z,6.68
2017-04-27T03:34:11.780Z,6.68
2017-04-27T03:35:12.103Z,6.66
2017-04-27T03:36:11.417Z,6.68
2017-04-27T03:37:11.709Z,6.7
2017-04-27T03:38:11.760Z,6.63
2017-04-27T03:39:11.661Z,6.63
2017-04-27T03:40:11.955Z,6.51
2017-04-27T03:41:11.923Z,6.48
2017-04-27T03:42:11.593Z,6.47
2017-04-27T03:43:11.262Z,6.48
2017-04-27T03:44:11.613Z,6.44
2017-04-27T03:45:11.823Z,6.51
2017-04-27T03:46:11.804Z,6.47
2017-04-27T03:47:11.782Z,6.45
2017-04-27T03:48:11.754Z,6.48
2017-04-27T03:49:11.753Z,6.48
2017-04-27T03:50:11.724Z,6.45
2017-04-27T03:51:11.064Z,6.37
2017-04-27T03:52:11.656Z,6.36
2017-04-27T03:53:11.336Z,6.43
2017-04-27T03:54:11.623Z,6.37
2017-04-27T03:55:11.614Z,6.44
2017-04-27T03:56:11.562Z,6.37
2017-04-27T03:57:11.613Z,6.36
2017-04-27T03:58:11.533Z,6.43
2017-04-27T03:59:11.183Z,6.4
2017-04-27T04:00:11.164Z,6.37
2017-04-27T04:01:11.458Z,6.14
2017-04-27T04:02:11.221Z,6.36
2017-04-27T04:03:11.094Z,6.29
2017-04-27T04:04:11.173Z,6.29
2017-04-27T04:05:11.037Z,6.36
2017-04-27T04:06:11.386Z,6.26
2017-04-27T04:07:10.994Z,6.4
2017-04-27T04:08:10.975Z,6.35
2017-04-27T04:09:10.952Z,6.37
2017-04-27T04:10:10.916Z,6.35
2017-04-27T04:11:11.214Z,6.27
2017-04-27T04:12:11.224Z,6.22
2017-04-27T04:13:10.866Z,6.35
2017-04-27T04:14:10.522Z,6.25
2017-04-27T04:15:10.803Z,6.25
2017-04-27T04:16:11.093Z,6.29
2017-04-27T04:17:10.442Z,6.26
2017-04-27T04:18:10.741Z,6.26
2017-04-27T04:19:11.121Z,6.3
2017-04-27T04:20:10.994Z,6.36
2017-04-27T04:21:10.653Z,6.26
2017-04-27T04:22:10.636Z,6.27
2017-04-27T04:23:10.929Z,6.33
2017-04-27T04:24:10.974Z,6.26
2017-04-27T04:25:10.571Z,6.37
2017-04-27T04:26:10.543Z,6.36
2017-04-27T04:27:10.898Z,6.37
2017-04-27T04:28:10.492Z,6.26
2017-04-27T04:29:10.867Z,6.35
2017-04-27T04:30:10.780Z,6.33
2017-04-27T04:31:10.412Z,6.35
2017-04-27T04:32:10.394Z,6.26
2017-04-27T04:33:10.787Z,6.43
2017-04-27T04:34:10.055Z,6.3
2017-04-27T04:35:10.023Z,6.36
2017-04-27T04:36:10.613Z,6.43
2017-04-27T04:37:10.651Z,6.45
2017-04-27T04:38:10.602Z,6.32
2017-04-27T04:39:10.225Z,6.4
2017-04-27T04:40:10.512Z,6.4
2017-04-27T04:41:10.493Z,6.4
2017-04-27T04:42:09.884Z,6.26
2017-04-27T04:43:10.134Z,6.26
2017-04-27T04:44:09.805Z,6.43
2017-04-27T04:45:10.397Z,6.33
2017-04-27T04:46:09.761Z,6.25
2017-04-27T04:47:10.133Z,6.45
2017-04-27T04:48:10.013Z,6.41
2017-04-27T04:49:09.985Z,6.37
2017-04-27T04:50:10.283Z,6.45
2017-04-27T04:51:10.256Z,6.44
2017-04-27T04:52:09.923Z,6.44
2017-04-27T04:53:09.974Z,6.44
2017-04-27T04:54:09.872Z,6.4
2017-04-27T04:55:09.854Z,6.44
2017-04-27T04:56:09.834Z,6.43
2017-04-27T04:57:10.103Z,6.48
2017-04-27T04:58:10.087Z,6.41
2017-04-27T04:59:09.755Z,6.47
2017-04-27T05:00:09.738Z,6.45
2017-04-27T05:01:10.064Z,6.5
2017-04-27T05:02:10.006Z,6.59
2017-04-27T05:03:09.726Z,6.51
2017-04-27T05:04:09.944Z,6.57
2017-04-27T05:05:09.612Z,6.66
2017-04-27T05:06:09.628Z,6.63
2017-04-27T05:07:09.882Z,6.72
2017-04-27T05:08:09.551Z,6.69
2017-04-27T05:09:09.838Z,6.7
2017-04-27T05:10:09.807Z,6.7
2017-04-27T05:11:09.789Z,6.69
2017-04-27T05:12:09.774Z,6.78
2017-04-27T05:13:09.724Z,6.72
2017-04-27T05:14:09.739Z,6.86
2017-04-27T05:15:09.694Z,6.68
2017-04-27T05:16:09.662Z,6.73
2017-04-27T05:17:09.328Z,6.7
2017-04-27T05:18:09.320Z,6.81
2017-04-27T05:19:09.280Z,6.83
2017-04-27T05:20:09.575Z,6.83
2017-04-27T05:21:09.542Z,6.8
2017-04-27T05:22:09.213Z,6.84
2017-04-27T05:23:09.245Z,6.87
2017-04-27T05:24:09.170Z,6.86
2017-04-27T05:25:09.153Z,6.86
2017-04-27T05:26:09.420Z,6.91
2017-04-27T05:27:09.413Z,6.83
2017-04-27T05:28:09.387Z,6.91
2017-04-27T05:29:09.352Z,6.94
2017-04-27T05:30:09.342Z,7.01
2017-04-27T05:31:09.332Z,6.99
2017-04-27T05:32:09.288Z,7.08
2017-04-27T05:33:09.253Z,7.01
2017-04-27T05:34:09.268Z,7.14
2017-04-27T05:35:09.202Z,7.09
2017-04-27T05:36:09.191Z,7.05
2017-04-27T05:37:08.845Z,7.05
2017-04-27T05:38:09.141Z,7.06
2017-04-27T05:39:08.819Z,7.04
2017-04-27T05:40:08.480Z,7.09
2017-04-27T05:41:09.072Z,7.23
2017-04-27T05:42:09.076Z,7.27
2017-04-27T05:43:08.713Z,7.35
2017-04-27T05:44:09.005Z,7.27
2017-04-27T05:45:08.987Z,7.27
2017-04-27T05:46:08.663Z,7.44
2017-04-27T05:47:08.943Z,7.44
2017-04-27T05:48:08.611Z,7.44
2017-04-27T05:49:08.578Z,7.53
2017-04-27T05:50:08.561Z,7.59
2017-04-27T05:51:08.532Z,7.57
2017-04-27T05:52:08.523Z,7.7
2017-04-27T05:53:08.783Z,7.7
2017-04-27T05:54:08.771Z,7.78
2017-04-27T05:55:08.431Z,7.76
2017-04-27T05:56:08.436Z,7.72
2017-04-27T05:57:08.730Z,7.7
2017-04-27T05:58:08.372Z,7.75
2017-04-27T05:59:08.042Z,7.73
2017-04-27T06:00:08.631Z,7.75
2017-04-27T06:01:08.025Z,7.78
2017-04-27T06:02:08.583Z,7.86
2017-04-27T06:03:08.573Z,7.86
2017-04-27T06:04:08.240Z,7.9
2017-04-27T06:05:08.515Z,7.9
2017-04-27T06:06:08.525Z,7.94
2017-04-27T06:07:08.487Z,7.88
2017-04-27T06:08:08.484Z,8.04
2017-04-27T06:09:08.113Z,8.06
2017-04-27T06:10:08.148Z,8.07
2017-04-27T06:11:08.071Z,8.14
2017-04-27T06:12:08.171Z,8.15
2017-04-27T06:13:08.331Z,8.15
2017-04-27T06:14:07.731Z,8.16
2017-04-27T06:15:08.321Z,8.24
2017-04-27T06:16:08.011Z,8.27
2017-04-27T06:17:08.246Z,8.32
2017-04-27T06:18:07.996Z,8.37
2017-04-27T06:19:08.217Z,8.34
2017-04-27T06:20:08.192Z,8.43
2017-04-27T06:21:08.154Z,8.42
2017-04-27T06:22:07.901Z,8.57
2017-04-27T06:23:08.132Z,8.55
2017-04-27T06:24:07.800Z,8.51
2017-04-27T06:25:08.073Z,8.51
2017-04-27T06:26:07.463Z,8.62
2017-04-27T06:27:07.793Z,8.69
2017-04-27T06:28:07.745Z,8.62
2017-04-27T06:29:08.061Z,8.77
2017-04-27T06:30:07.722Z,8.75
2017-04-27T06:31:07.933Z,8.75
2017-04-27T06:32:08.068Z,8.75
2017-04-27T06:33:07.656Z,8.88
2017-04-27T06:34:07.581Z,8.93
2017-04-27T06:35:07.942Z,8.91
2017-04-27T06:36:07.638Z,8.84
2017-04-27T06:37:07.903Z,8.93
2017-04-27T06:38:07.619Z,8.98
2017-04-27T06:39:07.462Z,8.94
2017-04-27T06:40:07.731Z,8.9
2017-04-27T06:41:07.819Z,8.94
2017-04-27T06:42:07.413Z,9.03
2017-04-27T06:43:07.431Z,9.06
2017-04-27T06:44:07.658Z,9.22
2017-04-27T06:45:07.632Z,9.27
2017-04-27T06:46:07.899Z,9.14
2017-04-27T06:47:07.590Z,9.28
2017-04-27T06:48:07.572Z,9.32
2017-04-27T06:49:07.547Z,9.34
2017-04-27T06:50:07.228Z,9.38
2017-04-27T06:51:07.201Z,9.46
2017-04-27T06:52:07.163Z,9.52
2017-04-27T06:53:07.464Z,9.52
2017-04-27T06:54:07.137Z,9.52
2017-04-27T06:55:06.803Z,9.61
2017-04-27T06:56:07.394Z,9.46
2017-04-27T06:57:07.375Z,9.52
2017-04-27T06:58:07.352Z,9.56
2017-04-27T06:59:07.483Z,9.6
2017-04-27T07:00:07.324Z,9.7
2017-04-27T07:01:06.696Z,9.78
2017-04-27T07:02:07.275Z,9.75
2017-04-27T07:03:07.263Z,9.85
2017-04-27T07:04:07.224Z,9.85
2017-04-27T07:05:07.106Z,9.85
2017-04-27T07:06:07.182Z,9.9
2017-04-27T07:07:07.164Z,9.92
2017-04-27T07:08:07.173Z,10.01
2017-04-27T07:09:06.535Z,10.08
2017-04-27T07:10:07.091Z,10.23
2017-04-27T07:11:07.076Z,10.25
2017-04-27T07:12:06.763Z,10.37
2017-04-27T07:13:07.034Z,10.43
2017-04-27T07:14:07.032Z,10.3
2017-04-27T07:15:06.691Z,10.38
2017-04-27T07:16:06.981Z,10.63
2017-04-27T07:17:06.955Z,10.66
2017-04-27T07:18:06.943Z,10.72
2017-04-27T07:19:06.611Z,10.81
2017-04-27T07:20:06.912Z,10.85
2017-04-27T07:21:06.890Z,10.96
2017-04-27T07:22:06.854Z,11.14
2017-04-27T07:23:06.531Z,11.26
2017-04-27T07:24:06.834Z,11.33
2017-04-27T07:25:06.172Z,11.39
2017-04-27T07:26:06.474Z,11.56
2017-04-27T07:27:06.442Z,11.71
2017-04-27T07:28:06.122Z,12.1
2017-04-27T07:29:06.735Z,12.25
2017-04-27T07:30:06.711Z,12.58
2017-04-27T07:31:06.388Z,12.64
2017-04-27T07:32:06.681Z,12.46
2017-04-27T07:33:06.666Z,12.32
2017-04-27T07:34:06.631Z,11.91
2017-04-27T07:35:06.312Z,11.83
2017-04-27T07:36:06.601Z,11.58
2017-04-27T07:37:06.593Z,11.5
2017-04-27T07:38:06.576Z,11.36
2017-04-27T07:39:06.549Z,11.23
2017-04-27T07:40:06.522Z,11.14
2017-04-27T07:41:06.205Z,11.05
2017-04-27T07:42:06.287Z,10.96
2017-04-27T07:43:06.166Z,10.98
2017-04-27T07:44:06.463Z,10.99
2017-04-27T07:45:06.432Z,10.82
2017-04-27T07:46:06.119Z,11.1
2017-04-27T07:47:06.402Z,11.99
2017-04-27T07:48:06.381Z,12.85
2017-04-27T07:49:06.058Z,14.05
2017-04-27T07:50:06.041Z,14.75
2017-04-27T07:51:06.015Z,15.47
2017-04-27T07:52:06.010Z,15.57
2017-04-27T07:53:06.362Z,16.21
2017-04-27T07:54:06.297Z,16.63
2017-04-27T07:55:06.280Z,17.18
2017-04-27T07:56:06.265Z,17.77
2017-04-27T07:57:06.275Z,17.77
2017-04-27T07:58:05.954Z,17.56
2017-04-27T07:59:06.234Z,17.64
2017-04-27T08:00:06.075Z,17.67
2017-04-27T08:01:05.604Z,17.11
2017-04-27T08:02:06.298Z,16.63
2017-04-27T08:03:05.893Z,15.9
2017-04-27T08:04:05.974Z,15.44
2017-04-27T08:05:05.863Z,15.04
2017-04-27T08:06:06.267Z,14.62
2017-04-27T08:07:06.151Z,14.38
2017-04-27T08:08:06.242Z,14.42
2017-04-27T08:09:06.228Z,14.6
2017-04-27T08:10:06.145Z,15.2
2017-04-27T08:11:05.493Z,16.04
2017-04-27T08:12:05.855Z,16.83
2017-04-27T08:13:05.790Z,17.15
2017-04-27T08:14:05.763Z,16.82
2017-04-27T08:15:05.813Z,15.94
2017-04-27T08:16:06.106Z,15.35
2017-04-27T08:17:06.047Z,14.75
2017-04-27T08:18:06.039Z,14.15
2017-04-27T08:19:06.049Z,13.72
2017-04-27T08:20:06.016Z,14.07
2017-04-27T08:21:05.734Z,14.6
2017-04-27T08:22:05.665Z,15.13
2017-04-27T08:23:05.664Z,15.22
2017-04-27T08:24:05.651Z,15.09
2017-04-27T08:25:05.643Z,15.47
2017-04-27T08:26:05.945Z,15.64
2017-04-27T08:27:05.414Z,15.9
2017-04-27T08:28:05.921Z,16.51
2017-04-27T08:29:05.300Z,17.01
2017-04-27T08:30:05.895Z,17.6
2017-04-27T08:31:05.887Z,18
2017-04-27T08:32:05.876Z,18.4
2017-04-27T08:33:05.564Z,18.7
2017-04-27T08:34:05.861Z,18.88
2017-04-27T08:35:05.544Z,18.96
2017-04-27T08:36:05.240Z,18.45
2017-04-27T08:37:05.835Z,17.98
2017-04-27T08:38:05.532Z,17.15
2017-04-27T08:39:05.589Z,16.58
2017-04-27T08:40:05.201Z,16.08
2017-04-27T08:41:05.812Z,16.05
2017-04-27T08:42:05.796Z,15.76
2017-04-27T08:43:05.805Z,15.53
2017-04-27T08:44:05.774Z,15.17
2017-04-27T08:45:05.791Z,14.77
2017-04-27T08:46:05.443Z,14.87
2017-04-27T08:47:05.740Z,15.09
2017-04-27T08:48:05.532Z,15.71
2017-04-27T08:49:05.419Z,16.42
2017-04-27T08:50:05.480Z,17.03
2017-04-27T08:51:05.712Z,17.12
2017-04-27T08:52:05.692Z,17.36
2017-04-27T08:53:05.414Z,17.45
2017-04-27T08:54:05.779Z,17.98
2017-04-27T08:55:05.731Z,18.15
2017-04-27T08:56:05.405Z,18.33
2017-04-27T08:57:05.356Z,18.37
2017-04-27T08:58:05.819Z,16.85
2017-04-27T08:59:05.333Z,16.96
2017-04-27T09:00:05.342Z,16.63
2017-04-27T09:01:05.333Z,16.54
2017-04-27T09:02:05.316Z,16.74
2017-04-27T09:03:04.995Z,16.75
2017-04-27T09:04:05.603Z,16.78
2017-04-27T09:05:05.616Z,16.83
2017-04-27T09:06:05.597Z,16.81
2017-04-27T09:07:05.675Z,16.63
2017-04-27T09:08:05.658Z,16.32
2017-04-27T09:09:05.284Z,16.02
2017-04-27T09:10:05.261Z,16.02
2017-04-27T09:11:05.644Z,15.79
2017-04-27T09:12:05.217Z,15.68
2017-04-27T09:13:05.518Z,16.32
2017-04-27T09:14:05.213Z,16.64
2017-04-27T09:15:05.191Z,16.98
2017-04-27T09:16:04.887Z,17.33
2017-04-27T09:17:05.501Z,17.42
2017-04-27T09:18:05.480Z,18.14
2017-04-27T09:19:05.463Z,18.25
2017-04-27T09:20:05.451Z,18.22
2017-04-27T09:21:05.251Z,18.19
2017-04-27T09:22:05.483Z,18.26
2017-04-27T09:23:05.227Z,18.59
2017-04-27T09:24:05.129Z,18.93
2017-04-27T09:25:05.416Z,19.37
2017-04-27T09:26:05.098Z,19.53
2017-04-27T09:27:05.163Z,19.3
2017-04-27T09:28:05.404Z,18.75
2017-04-27T09:29:05.382Z,18.23
2017-04-27T09:30:05.382Z,18.59
2017-04-27T09:31:05.130Z,18.93
2017-04-27T09:32:05.082Z,18.63
2017-04-27T09:33:05.462Z,18.78
2017-04-27T09:34:05.067Z,17.3
2017-04-27T09:35:05.162Z,17.65
2017-04-27T09:36:05.354Z,18.11
2017-04-27T09:37:05.124Z,17.01
2017-04-27T09:38:04.735Z,16.2
2017-04-27T09:39:05.032Z,16.53
2017-04-27T09:40:05.336Z,17.37
2017-04-27T09:41:05.082Z,18.11
2017-04-27T09:42:05.024Z,18.92
2017-04-27T09:43:05.007Z,19.51
2017-04-27T09:44:05.004Z,19.12
2017-04-27T09:45:05.293Z,19.62
2017-04-27T09:46:04.976Z,19.73
2017-04-27T09:47:04.982Z,19.36
2017-04-27T09:48:05.282Z,18.87
2017-04-27T09:49:05.279Z,17.96
2017-04-27T09:50:04.968Z,17.44
2017-04-27T09:51:04.958Z,16.72
2017-04-27T09:52:04.952Z,16.35
2017-04-27T09:53:05.232Z,16.28
2017-04-27T09:54:04.948Z,16.81
2017-04-27T09:55:04.915Z,17.62
2017-04-27T09:56:05.232Z,17.9
2017-04-27T09:57:05.211Z,18.3
2017-04-27T09:58:04.915Z,18.6
2017-04-27T09:59:05.192Z,18.6
2017-04-27T10:00:04.865Z,18.63
2017-04-27T10:01:05.172Z,19.28
2017-04-27T10:02:04.865Z,19.41
2017-04-27T10:03:05.132Z,19.06
2017-04-27T10:04:05.130Z,18.77
2017-04-27T10:05:05.124Z,18.9
2017-04-27T10:06:05.114Z,18.55
2017-04-27T10:07:05.123Z,18.3
2017-04-27T10:08:04.783Z,17.6
2017-04-27T10:09:05.091Z,16.75
2017-04-27T10:10:05.073Z,16.66
2017-04-27T10:11:05.073Z,16.72
2017-04-27T10:12:05.061Z,16.64
2017-04-27T10:13:05.054Z,16.66
2017-04-27T10:14:05.035Z,16.35
2017-04-27T10:15:05.015Z,16.66
2017-04-27T10:16:05.015Z,16.61
2017-04-27T10:17:04.988Z,17.24
2017-04-27T10:18:04.988Z,17.31
2017-04-27T10:19:04.983Z,17.67
2017-04-27T10:20:04.955Z,16.83
2017-04-27T10:21:04.937Z,16.26
2017-04-27T10:22:04.932Z,16.82
2017-04-27T10:23:04.904Z,17.36
2017-04-27T10:24:04.919Z,17.4
2017-04-27T10:25:04.887Z,16.63
2017-04-27T10:26:04.563Z,15.52
2017-04-27T10:27:04.862Z,15.76
2017-04-27T10:28:04.847Z,16.72
2017-04-27T10:29:04.522Z,17.21
2017-04-27T10:30:04.817Z,17.6
2017-04-27T10:31:04.509Z,18
2017-04-27T10:32:04.791Z,18.04
2017-04-27T10:33:04.782Z,18.11
2017-04-27T10:34:04.448Z,18.33
2017-04-27T10:35:04.452Z,18.48
2017-04-27T10:36:04.454Z,18.52
2017-04-27T10:37:04.727Z,18.3
2017-04-27T10:38:04.712Z,18.35
2017-04-27T10:39:04.393Z,18.02
2017-04-27T10:40:04.385Z,17.18
2017-04-27T10:41:04.451Z,16.6
2017-04-27T10:42:04.646Z,16.36
2017-04-27T10:43:04.725Z,16.28
2017-04-27T10:44:04.657Z,16.12
2017-04-27T10:45:04.609Z,15.97
2017-04-27T10:46:04.614Z,16.01
2017-04-27T10:47:04.384Z,16.21
2017-04-27T10:48:04.570Z,16.64
2017-04-27T10:49:04.279Z,17.15
2017-04-27T10:50:04.532Z,17.33
2017-04-27T10:51:04.272Z,17.52
2017-04-27T10:52:04.530Z,17.45
2017-04-27T10:53:04.272Z,17.29
2017-04-27T10:54:04.493Z,16.78
2017-04-27T10:55:04.482Z,16.64
2017-04-27T10:56:04.470Z,16.6
2017-04-27T10:57:04.486Z,16.54
2017-04-27T10:58:03.802Z,16.5
2017-04-27T10:59:03.802Z,16.35
2017-04-27T11:00:04.111Z,16.35
2017-04-27T11:01:04.387Z,16.79
2017-04-27T11:02:04.052Z,17.29
2017-04-27T11:03:04.032Z,17.75
2017-04-27T11:04:04.034Z,17.86
2017-04-27T11:05:04.363Z,17.33
2017-04-27T11:06:03.991Z,16.74
2017-04-27T11:07:04.284Z,16.58
2017-04-27T11:08:04.277Z,16.2
2017-04-27T11:09:04.261Z,16.2
2017-04-27T11:10:03.946Z,15.95
2017-04-27T11:11:03.917Z,15.95
2017-04-27T11:12:03.972Z,15.9
2017-04-27T11:13:03.932Z,15.44
2017-04-27T11:14:03.891Z,15.09
2017-04-27T11:15:04.167Z,15.12
2017-04-27T11:16:03.543Z,15.12
2017-04-27T11:17:03.824Z,15.14
2017-04-27T11:18:04.115Z,15.07
2017-04-27T11:19:04.104Z,15.49
2017-04-27T11:20:03.781Z,15.79
2017-04-27T11:21:04.062Z,16.17
2017-04-27T11:22:03.755Z,16.6
2017-04-27T11:23:04.052Z,16.76
2017-04-27T11:24:04.046Z,17.05
2017-04-27T11:25:03.386Z,17.4
2017-04-27T11:26:03.877Z,17.83
2017-04-27T11:27:03.577Z,18
2017-04-27T11:28:03.963Z,18.32
2017-04-27T11:29:03.655Z,18.47
2017-04-27T11:30:03.964Z,18.7
2017-04-27T11:31:03.917Z,18.75
2017-04-27T11:32:03.923Z,18.82
2017-04-27T11:33:03.582Z,18.77
2017-04-27T11:34:03.871Z,18.67
2017-04-27T11:35:04.219Z,18.82
2017-04-27T11:36:03.973Z,18.95
2017-04-27T11:37:03.839Z,18.73
2017-04-27T11:38:03.503Z,18.92
2017-04-27T11:39:03.947Z,19.14
2017-04-27T11:40:03.603Z,19.06
2017-04-27T11:41:03.763Z,19.06
2017-04-27T11:42:03.551Z,18.62
2017-04-27T11:43:03.442Z,18.41
2017-04-27T11:44:03.472Z,18.23
2017-04-27T11:45:03.728Z,17.89
2017-04-27T11:46:03.712Z,17.34
2017-04-27T11:47:03.681Z,16.93
2017-04-27T11:48:03.392Z,16.66
2017-04-27T11:49:03.468Z,16.48
2017-04-27T11:50:03.659Z,16.58
2017-04-27T11:51:03.653Z,16.53
2017-04-27T11:52:03.470Z,16.39
2017-04-27T11:53:02.994Z,16.32
2017-04-27T11:54:03.634Z,16.24
2017-04-27T11:55:03.282Z,15.97
2017-04-27T11:56:03.171Z,15.71
2017-04-27T11:57:03.549Z,15.44
2017-04-27T11:58:03.519Z,15.4
2017-04-27T11:59:03.303Z,15.52
2017-04-27T12:00:02.901Z,15.46
2017-04-27T12:01:03.474Z,15.62
2017-04-27T12:02:03.453Z,15.85
2017-04-27T12:03:03.442Z,16.48
2017-04-27T12:04:03.121Z,16.9
2017-04-27T12:05:03.231Z,16.45
2017-04-27T12:06:03.398Z,16.57
2017-04-27T12:07:03.101Z,16.79
2017-04-27T12:08:03.064Z,16.89
2017-04-27T12:09:03.052Z,16.98
2017-04-27T12:10:03.203Z,16.81
2017-04-27T12:11:03.036Z,16.79
2017-04-27T12:12:03.082Z,17.27
2017-04-27T12:13:02.991Z,17.74
2017-04-27T12:14:03.305Z,16.71
2017-04-27T12:15:03.272Z,16.75
2017-04-27T12:16:03.250Z,16.96
2017-04-27T12:17:03.248Z,17.03
2017-04-27T12:18:02.904Z,17.44
2017-04-27T12:19:02.908Z,17.87
2017-04-27T12:20:03.311Z,17.52
2017-04-27T12:21:02.855Z,17.03
2017-04-27T12:22:03.287Z,16.82
2017-04-27T12:23:03.040Z,17.14
2017-04-27T12:24:03.228Z,17.3
2017-04-27T12:25:03.111Z,17.62
2017-04-27T12:26:02.852Z,18.12
2017-04-27T12:27:02.484Z,18.25
2017-04-27T12:28:02.772Z,18.12
2017-04-27T12:29:02.768Z,17.85
2017-04-27T12:30:02.424Z,17.64
2017-04-27T12:31:02.723Z,17.58
2017-04-27T12:32:02.714Z,17.96
2017-04-27T12:33:02.714Z,18.37
2017-04-27T12:34:03.032Z,18.35
2017-04-27T12:35:02.674Z,18.14
2017-04-27T12:36:02.524Z,18.05
2017-04-27T12:37:02.983Z,17.92
2017-04-27T12:38:02.949Z,17.56
2017-04-27T12:39:02.912Z,17.42
2017-04-27T12:40:02.323Z,17.08
2017-04-27T12:41:02.897Z,15.62
2017-04-27T12:42:02.623Z,15.42
2017-04-27T12:43:02.859Z,15.65
2017-04-27T12:44:02.853Z,16.01
2017-04-27T12:45:02.833Z,16.05
2017-04-27T12:46:02.872Z,16.05
2017-04-27T12:47:02.917Z,16.27
2017-04-27T12:48:02.979Z,16.31
2017-04-27T12:49:02.772Z,16.45
2017-04-27T12:50:02.808Z,16.66
2017-04-27T12:51:02.743Z,16.96
2017-04-27T12:52:02.732Z,17.31
2017-04-27T12:53:02.733Z,17.16
2017-04-27T12:54:02.712Z,16.35
2017-04-27T12:55:02.394Z,16.48
2017-04-27T12:56:02.390Z,16.81
2017-04-27T12:57:02.337Z,17.39
2017-04-27T12:58:02.355Z,17.67
2017-04-27T12:59:02.314Z,18.07
2017-04-27T13:00:02.610Z,17.78
2017-04-27T13:01:02.075Z,17.42
2017-04-27T13:02:02.573Z,17.15
2017-04-27T13:03:02.563Z,17.29
2017-04-27T13:04:02.563Z,16.64
2017-04-27T13:05:02.533Z,16.61
2017-04-27T13:06:02.532Z,16.45
2017-04-27T13:07:02.506Z,16.64
2017-04-27T13:08:02.192Z,16.87
2017-04-27T13:09:02.534Z,17.14